CST,Max TemperatureF,Mean TemperatureF,Min TemperatureF,Max Dew PointF,MeanDew PointF,Min DewpointF,Max Humidity, Mean Humidity, Min Humidity, Max Sea Level PressureIn, Mean Sea Level PressureIn, Min Sea Level PressureIn, Max VisibilityMiles, Mean VisibilityMiles, Min VisibilityMiles, Max Wind SpeedMPH, Mean Wind SpeedMPH, Max Gust SpeedMPH,PrecipitationIn, CloudCover, Events, WindDirDegrees
2013-12-1,53,47,41,54,49,41,100,100,100,30.12,30.02,29.90,7,4,0,5,1,,0.00,7,Fog,157
2013-12-2,62,54,46,54,49,46,100,94,63,29.90,29.75,29.65,10,4,0,9,3,,0.00,4,Fog-Rain,185
2013-12-3,69,56,44,54,50,45,100,88,49,29.65,29.57,29.49,10,5,0,12,7,16,0.00,4,Fog-Rain,168
2013-12-4,48,40,32,48,38,27,100,89,70,30.05,29.76,29.50,10,8,2,18,10,26,0.00,4,,336
2013-12-5,32,28,23,25,20,14,100,76,55,30.30,30.21,30.07,10,9,2,20,14,28,0.00,5,Snow,11
2013-12-6,28,22,15,23,15,9,100,76,55,30.59,30.44,30.27,10,8,1,14,11,21,0.00,5,Snow,16
2013-12-7,24,16,8,18,11,5,92,76,59,30.63,30.50,30.29,10,10,10,14,7,17,0.00,3,,49
2013-12-8,32,28,23,30,26,18,100,94,80,30.26,30.11,29.99,10,8,1,13,4,,0.00,8,Snow,204
2013-12-9,28,26,21,28,22,18,100,84,64,30.42,30.31,30.19,10,10,7,13,6,17,0.00,6,Snow,10
2013-12-10,41,28,14,28,21,12,100,78,53,30.44,30.34,30.22,10,10,10,13,5,17,0.00,0,,217
2013-12-11,42,32,21,32,24,21,100,75,53,30.61,30.47,30.24,10,10,7,14,6,21,0.00,0,,53
2013-12-12,44,32,21,32,27,19,100,80,61,30.61,30.46,30.21,10,10,10,16,5,21,0.00,0,,192
2013-12-13,50,44,37,43,39,32,100,92,76,30.21,29.95,29.79,10,7,0,17,9,25,0.00,7,Fog-Rain,173
2013-12-14,42,37,30,43,33,28,100,89,65,30.29,30.13,29.85,10,6,0,23,9,29,0.00,5,Fog-Rain,332
2013-12-15,62,44,26,37,31,27,100,68,32,30.29,30.20,30.13,10,9,5,15,7,21,0.00,0,,232
2013-12-16,71,54,37,37,35,32,81,56,25,30.16,30.12,30.06,10,10,10,10,7,17,0.00,0,,230
2013-12-17,64,50,35,37,34,32,93,59,32,30.33,30.26,30.15,10,10,7,14,7,17,0.00,0,,28
2013-12-18,71,54,37,50,39,32,87,60,33,30.26,30.06,29.88,10,10,10,23,9,31,0.00,0,,189
2013-12-19,68,62,55,59,55,50,94,82,64,29.87,29.74,29.66,10,10,10,23,15,32,0.00,2,,196
2013-12-20,62,46,30,59,34,25,100,88,75,30.00,29.88,29.68,10,8,2,25,13,30,0.00,7,Snow,343
2013-12-21,33,32,32,34,32,32,100,100,100,29.85,29.71,29.55,10,6,1,7,1,,0.00,8,Snow,8
2013-12-22,32,28,24,32,29,25,100,98,93,30.40,30.15,29.81,10,8,5,7,2,,0.00,7,,339
2013-12-23,30,24,19,30,25,19,100,100,93,30.60,30.51,30.38,10,8,5,4,0,,0.00,3,,50
2013-12-24,41,31,21,39,30,21,100,97,87,30.58,30.36,30.17,10,7,2,9,2,,0.00,4,Rain-Snow,165
2013-12-25,42,36,30,39,34,30,100,97,76,30.42,30.36,30.26,10,5,0,10,6,,0.00,4,Fog,344
2013-12-26,55,40,26,41,33,27,100,81,44,30.41,30.36,30.29,10,7,1,12,5,,0.00,0,,228
2013-12-27,62,47,32,37,33,30,100,68,34,30.40,30.34,30.29,10,10,10,13,6,,0.00,0,,210
2013-12-28,62,48,35,45,38,32,93,74,42,30.29,30.08,29.92,10,10,10,14,7,21,0.00,0,,195
2013-12-29,44,34,23,45,27,10,100,78,54,30.31,30.19,29.93,10,10,7,28,10,36,0.00,5,,359
2013-12-30,41,28,15,23,16,10,86,62,42,30.37,30.30,30.25,10,10,3,7,5,,0.00,0,,312
2013-12-31,59,42,24,32,28,23,93,64,31,30.36,30.26,30.13,10,10,7,21,8,28,0.00,0,,203